Time;durP1;ratioP1;P1;durP2;ratioP2;P2;SDS_P1;SDS_P2;PMS_P1;PMS_P2;Temp;Humidity;BMP_temperature;BMP_pressure;BME280_temperature;BME280_humidity;BME280_pressure;Samples;Min_cycle;Max_cycle;Signal;HPM_P1;HPM_P2
2023/01/25 00:02:15;;;;;;;52.47;32.53;;;;;;;0.14;93.86;103764.59;4946922;29;20035;-91
2023/01/25 00:04:40;;;;;;;49.72;31.92;;;;;;;0.12;94.11;103764.53;4945950;29;20168;-90
2023/01/25 00:07:05;;;;;;;52.67;33.30;;;;;;;0.11;94.19;103755.22;4945402;29;20035;-90
2023/01/25 00:09:31;;;;;;;49.13;30.95;;;;;;;0.19;94.74;103761.34;4943535;29;20483;-87
2023/01/25 00:11:57;;;;;;;52.83;33.03;;;;;;;0.20;94.80;103762.22;4941445;29;20083;-89
2023/01/25 00:14:23;;;;;;;61.63;37.03;;;;;;;0.14;94.19;103765.44;4937432;29;20054;-84
2023/01/25 00:16:49;;;;;;;64.30;38.22;;;;;;;0.10;94.06;103761.13;4938462;29;20365;-83
2023/01/25 00:19:14;;;;;;;62.15;37.80;;;;;;;0.00;94.24;103754.06;4938162;29;20039;-83
2023/01/25 00:21:40;;;;;;;64.45;38.72;;;;;;;0.06;94.02;103761.81;4938132;29;20384;-84
2023/01/25 00:24:05;;;;;;;60.35;36.53;;;;;;;0.06;93.91;103764.38;4938619;29;20476;-81
2023/01/25 00:26:33;;;;;;;67.72;38.03;;;;;;;0.01;94.41;103745.63;4938455;29;20032;-81
2023/01/25 00:28:59;;;;;;;58.08;35.10;;;;;;;-0.13;93.72;103731.66;4938760;29;20036;-81
2023/01/25 00:31:33;;;;;;;61.22;37.22;;;;;;;-0.04;94.10;103753.09;4938258;29;20119;-81
2023/01/25 00:34:20;;;;;;;66.22;39.05;;;;;;;-0.08;94.25;103755.50;4938294;29;20063;-81
2023/01/25 00:36:49;;;;;;;64.07;37.97;;;;;;;-0.28;94.43;103718.53;4936461;29;20067;-82
2023/01/25 00:39:14;;;;;;;65.40;39.00;;;;;;;-0.24;94.21;103731.34;4938418;29;20443;-81
2023/01/25 00:41:40;;;;;;;65.93;38.00;;;;;;;-0.06;94.67;103753.88;4937429;29;20036;-83
2023/01/25 00:44:05;;;;;;;68.43;40.13;;;;;;;-0.18;94.52;103733.22;4938370;29;20024;-82
2023/01/25 00:46:30;;;;;;;66.82;38.35;;;;;;;-0.53;94.21;103672.13;4937146;29;20040;-84
2023/01/25 00:48:56;;;;;;;66.63;38.53;;;;;;;-0.30;94.84;103711.72;4939750;29;20384;-88
2023/01/25 00:51:23;;;;;;;66.40;38.90;;;;;;;-0.13;94.79;103747.75;4938942;29;20469;-83
2023/01/25 00:53:48;;;;;;;71.93;39.08;;;;;;;-0.13;95.02;103746.88;4938898;29;20031;-85
2023/01/25 00:56:14;;;;;;;72.72;41.42;;;;;;;-0.10;95.25;103746.97;4938450;29;20032;-84
2023/01/25 00:58:40;;;;;;;71.00;39.58;;;;;;;-0.13;94.67;103744.34;4939008;29;20035;-87
2023/01/25 01:01:05;;;;;;;67.60;39.00;;;;;;;-0.19;94.80;103728.97;4939384;29;20055;-87
2023/01/25 01:03:30;;;;;;;66.95;38.50;;;;;;;-0.20;94.99;103717.06;4938603;29;20051;-87
2023/01/25 01:06:14;;;;;;;69.53;40.67;;;;;;;-0.26;94.75;103704.19;4939588;29;20020;-83
2023/01/25 01:08:40;;;;;;;73.20;41.53;;;;;;;-0.10;93.52;103739.34;4939894;29;20481;-88
2023/01/25 01:11:08;;;;;;;73.20;41.05;;;;;;;-0.13;94.08;103740.13;4942702;29;20075;-89
2023/01/25 01:13:33;;;;;;;74.85;41.25;;;;;;;-0.14;94.29;103735.00;4943878;29;20035;-89
2023/01/25 01:16:06;;;;;;;77.18;42.47;;;;;;;-0.16;94.23;103734.13;4943444;29;20114;-90
2023/01/25 01:18:37;;;;;;;76.15;42.63;;;;;;;-0.14;94.46;103732.47;4941832;29;20027;-89
2023/01/25 01:21:03;;;;;;;75.63;43.03;;;;;;;-0.14;93.91;103733.34;4942319;29;20488;-89
2023/01/25 01:23:29;;;;;;;80.63;44.95;;;;;;;-0.36;94.37;103696.31;4941848;29;20020;-88
2023/01/25 01:25:55;;;;;;;79.30;44.45;;;;;;;-0.33;94.10;103701.47;4941240;29;20027;-90
2023/01/25 01:28:20;;;;;;;80.80;44.95;;;;;;;-0.37;94.22;103699.69;4941847;29;20070;-83
2023/01/25 01:30:45;;;;;;;81.28;45.00;;;;;;;-0.15;94.02;103736.69;4941392;29;20114;-88
2023/01/25 01:33:10;;;;;;;80.03;42.58;;;;;;;-0.21;93.99;103728.03;4941733;29;20023;-85
2023/01/25 01:35:36;;;;;;;82.45;44.40;;;;;;;-0.33;94.48;103715.84;4942938;29;20115;-88
2023/01/25 01:38:01;;;;;;;72.15;42.00;;;;;;;-0.19;94.23;103727.28;4943276;29;20035;-89
2023/01/25 01:40:26;;;;;;;73.63;41.30;;;;;;;-0.20;94.60;103734.81;4943763;29;20812;-90
2023/01/25 01:43:17;;;;;;;71.25;40.85;;;;;;;-0.22;94.78;103732.25;4942874;29;20055;-88
2023/01/25 01:45:42;;;;;;;75.65;41.83;;;;;;;-0.29;95.10;103738.00;4902842;29;20055;-90
2023/01/25 01:48:14;;;;;;;71.47;39.75;;;;;;;-0.61;95.32;103679.50;4904677;29;20033;-88
2023/01/25 01:50:40;;;;;;;71.70;39.63;;;;;;;-0.59;94.65;103699.84;4902546;29;20425;-89
2023/01/25 01:53:06;;;;;;;72.25;40.55;;;;;;;-0.50;95.37;103715.34;4902690;29;20041;-87
2023/01/25 01:55:31;;;;;;;73.30;40.47;;;;;;;-0.82;94.88;103652.66;4901964;29;20119;-89
2023/01/25 01:57:58;;;;;;;66.82;38.42;;;;;;;-0.60;95.00;103691.38;4903366;29;20131;-89
2023/01/25 02:00:28;;;;;;;72.60;40.92;;;;;;;-0.76;95.62;103668.94;4887517;29;20093;-88
2023/01/25 02:02:54;;;;;;;73.80;40.15;;;;;;;-0.35;95.42;103733.59;4903316;29;20109;-89
2023/01/25 02:05:34;;;;;;;68.80;40.03;;;;;;;-0.32;95.73;103740.41;4905284;29;20064;-89
2023/01/25 02:08:02;;;;;;;73.68;42.28;;;;;;;-0.50;95.10;103706.88;4902869;29;20071;-88
2023/01/25 02:10:29;;;;;;;74.65;41.33;;;;;;;-0.46;95.65;103716.31;4901717;29;20057;-89
2023/01/25 02:12:56;;;;;;;72.32;40.67;;;;;;;-0.63;94.97;103686.22;4900289;29;20078;-89
2023/01/25 02:15:21;;;;;;;73.53;40.63;;;;;;;-0.33;95.21;103731.94;4883941;29;20040;-89
2023/01/25 02:17:48;;;;;;;73.20;40.17;;;;;;;-0.37;95.35;103721.66;4898831;29;20504;-89
2023/01/25 02:20:16;;;;;;;72.72;40.03;;;;;;;-0.28;95.53;103728.69;4898696;29;20036;-86
2023/01/25 02:22:53;;;;;;;72.45;40.75;;;;;;;-0.30;95.36;103729.47;4919225;29;20055;-90
2023/01/25 02:25:18;;;;;;;73.32;40.63;;;;;;;-0.47;95.30;103682.47;4937823;29;20507;-89
2023/01/25 02:27:50;;;;;;;75.43;41.33;;;;;;;-0.39;95.55;103696.25;4938617;29;20024;-87
2023/01/25 02:30:16;;;;;;;71.40;40.53;;;;;;;-0.25;95.39;103711.00;4937853;29;20027;-88
2023/01/25 02:32:41;;;;;;;72.05;40.92;;;;;;;-0.40;95.59;103686.88;4937515;29;20388;-90
2023/01/25 02:35:07;;;;;;;77.15;42.70;;;;;;;-0.25;95.63;103708.47;4938920;29;20167;-90
2023/01/25 02:37:32;;;;;;;76.78;41.42;;;;;;;-0.57;95.34;103656.78;4937921;29;20031;-88
2023/01/25 02:39:58;;;;;;;75.07;40.78;;;;;;;-0.33;95.51;103700.63;4940441;29;20028;-88
2023/01/25 02:42:23;;;;;;;73.63;39.30;;;;;;;-0.32;95.73;103694.72;4939311;29;20032;-87
2023/01/25 02:44:50;;;;;;;72.65;39.83;;;;;;;-0.37;95.90;103681.91;4938561;29;20032;-88
2023/01/25 02:47:15;;;;;;;87.90;45.80;;;;;;;-0.63;95.17;103638.00;4937795;29;20031;-87
2023/01/25 02:49:40;;;;;;;84.93;44.72;;;;;;;-0.39;95.69;103677.63;4938175;29;20031;-89
2023/01/25 02:52:06;;;;;;;94.47;46.78;;;;;;;-0.51;95.42;103659.47;4938252;29;20119;-87
2023/01/25 02:54:31;;;;;;;93.57;47.65;;;;;;;-0.49;95.60;103662.91;4937464;29;20107;-89
2023/01/25 02:56:57;;;;;;;94.35;47.90;;;;;;;-0.30;95.56;103699.00;4936819;29;20059;-86
2023/01/25 02:59:22;;;;;;;96.95;48.63;;;;;;;-0.33;95.68;103695.53;4939110;29;20034;-88
2023/01/25 03:01:48;;;;;;;98.75;48.33;;;;;;;-0.33;95.44;103698.06;4938976;29;20038;-89
2023/01/25 03:04:13;;;;;;;96.63;48.47;;;;;;;-0.39;95.73;103687.78;4940229;29;20043;-89
2023/01/25 03:06:39;;;;;;;95.78;48.50;;;;;;;-0.33;95.63;103698.06;4940104;29;20464;-87
2023/01/25 03:09:08;;;;;;;98.00;49.70;;;;;;;-0.54;95.38;103656.84;4938667;29;20028;-87
2023/01/25 03:11:34;;;;;;;101.38;48.95;;;;;;;-0.41;95.84;103685.16;4900728;29;1091905;-88
2023/01/25 03:14:00;;;;;;;105.55;51.25;;;;;;;-0.38;95.68;103692.03;4939289;29;20119;-91
2023/01/25 03:16:25;;;;;;;102.10;50.80;;;;;;;-0.39;94.75;103687.78;4935555;29;20103;-90
2023/01/25 03:18:54;;;;;;;101.43;49.83;;;;;;;-0.44;94.92;103684.22;4935607;29;20024;-90
2023/01/25 03:21:21;;;;;;;99.53;49.88;;;;;;;-0.52;94.81;103683.13;4939589;29;20036;-89
2023/01/25 03:23:53;;;;;;;97.90;47.85;;;;;;;-0.52;95.00;103681.47;4939284;29;20106;-90
2023/01/25 03:26:20;;;;;;;102.57;50.78;;;;;;;-0.52;95.14;103667.91;4939192;29;20075;-86
2023/01/25 03:28:46;;;;;;;105.38;51.17;;;;;;;-0.98;94.94;103606.56;4939558;29;20032;-90
2023/01/25 03:31:13;;;;;;;99.50;50.17;;;;;;;-1.05;95.89;103586.91;4939936;29;20031;-89
2023/01/25 03:33:39;;;;;;;102.30;50.75;;;;;;;-0.79;95.63;103624.84;4940627;29;20098;-90
2023/01/25 03:36:06;;;;;;;98.30;49.03;;;;;;;-0.77;95.23;103623.22;4940887;29;20086;-86
2023/01/25 03:38:31;;;;;;;104.55;51.05;;;;;;;-0.74;96.03;103633.44;4940095;29;20059;-86
2023/01/25 03:40:56;;;;;;;103.88;50.42;;;;;;;-0.71;95.96;103631.00;4940798;29;20020;-89
2023/01/25 03:43:22;;;;;;;110.85;52.45;;;;;;;-0.82;95.98;103607.84;4938856;29;20496;-89
2023/01/25 03:45:55;;;;;;;105.38;51.25;;;;;;;-0.51;95.79;103649.31;4940160;29;20034;-84
2023/01/25 03:48:22;;;;;;;105.22;50.78;;;;;;;-0.49;96.04;103653.66;4938479;29;20476;-82
2023/01/25 03:50:49;;;;;;;106.97;51.03;;;;;;;-0.55;96.41;103634.84;4938904;29;20020;-82
2023/01/25 03:53:26;;;;;;;111.30;52.42;;;;;;;-0.47;96.00;103652.00;4937038;29;20110;-83
2023/01/25 03:55:52;;;;;;;111.28;53.35;;;;;;;-0.72;96.01;103614.91;4953620;29;20405;-85
2023/01/25 03:58:17;;;;;;;111.85;53.45;;;;;;;-0.47;96.04;103656.22;4957394;28;20123;-85
2023/01/25 04:00:42;;;;;;;109.43;52.63;;;;;;;-0.72;95.84;103619.13;4959139;28;20074;-90
2023/01/25 04:03:08;;;;;;;114.18;54.00;;;;;;;-0.49;96.25;103653.66;4958540;29;20023;-81
2023/01/25 04:05:33;;;;;;;113.60;53.53;;;;;;;-0.70;95.44;103622.56;4957749;29;20525;-82
2023/01/25 04:07:58;;;;;;;111.85;52.47;;;;;;;-0.63;95.54;103634.63;4957423;29;20035;-82
2023/01/25 04:10:24;;;;;;;105.65;50.50;;;;;;;-0.51;96.03;103655.25;4956888;29;20051;-84
2023/01/25 04:12:49;;;;;;;108.22;52.13;;;;;;;-0.49;95.45;103658.72;4957406;29;20035;-88
2023/01/25 04:15:14;;;;;;;111.13;52.80;;;;;;;-0.64;95.52;103622.75;4958073;29;20019;-87
2023/01/25 04:17:40;;;;;;;115.13;54.10;;;;;;;-0.49;95.96;103650.22;4957365;28;20550;-89
2023/01/25 04:20:06;;;;;;;111.88;52.90;;;;;;;-0.82;95.61;103589.22;4957302;28;20459;-89
2023/01/25 04:22:31;;;;;;;105.82;51.42;;;;;;;-0.56;95.90;103625.50;4957068;28;20058;-89
2023/01/25 04:24:56;;;;;;;105.53;50.80;;;;;;;-0.47;95.28;103634.25;4957116;29;20427;-89
2023/01/25 04:27:21;;;;;;;109.82;53.67;;;;;;;-0.54;95.94;103619.66;4956927;28;20031;-89
2023/01/25 04:29:47;;;;;;;103.97;51.30;;;;;;;-0.45;95.99;103622.44;4956645;28;20430;-85
2023/01/25 04:32:12;;;;;;;104.50;51.42;;;;;;;-0.69;96.18;103584.56;4957039;29;20035;-90
2023/01/25 04:34:37;;;;;;;110.85;52.92;;;;;;;-0.52;95.93;103617.16;4956743;29;20034;-88
2023/01/25 04:37:03;;;;;;;110.97;52.55;;;;;;;-0.44;96.10;103631.78;4956675;28;20042;-84
2023/01/25 04:39:28;;;;;;;109.30;52.67;;;;;;;-0.46;95.76;103628.34;4956392;28;20066;-87
2023/01/25 04:41:53;;;;;;;114.78;56.55;;;;;;;-0.43;95.52;103630.09;4956960;29;20031;-87
2023/01/25 04:44:19;;;;;;;118.28;54.30;;;;;;;-0.42;96.15;103624.19;4956620;29;20046;-88
2023/01/25 04:46:44;;;;;;;125.20;57.67;;;;;;;-0.54;96.17;103608.63;4956834;29;20035;-90
2023/01/25 04:49:09;;;;;;;127.57;60.42;;;;;;;-0.45;96.30;103630.06;4956553;28;20115;-90
2023/01/25 04:51:35;;;;;;;136.45;60.85;;;;;;;-0.59;96.74;103601.78;4957492;28;20083;-89
2023/01/25 04:54:00;;;;;;;132.05;58.25;;;;;;;-0.51;96.22;103611.25;4957006;29;20058;-88
2023/01/25 04:56:25;;;;;;;128.43;60.03;;;;;;;-0.59;95.99;103609.38;4955408;29;20395;-90
2023/01/25 04:58:50;;;;;;;132.20;58.63;;;;;;;-0.47;96.11;103625.75;4956886;28;20111;-83
2023/01/25 05:01:16;;;;;;;132.52;60.60;;;;;;;-0.50;95.78;103618.91;4955053;29;20130;-83
2023/01/25 05:03:41;;;;;;;132.70;59.20;;;;;;;-0.66;95.97;103588.84;4956284;29;20101;-84
2023/01/25 05:06:06;;;;;;;134.40;59.50;;;;;;;-0.62;96.21;103593.19;4955970;29;20735;-83
2023/01/25 05:08:32;;;;;;;129.43;58.45;;;;;;;-0.70;95.78;103574.34;4956059;28;20031;-83
2023/01/25 05:10:57;;;;;;;133.63;59.47;;;;;;;-0.52;95.39;103609.53;4955813;28;20097;-88
2023/01/25 05:13:22;;;;;;;137.43;59.58;;;;;;;-0.64;95.10;103592.28;4955680;28;20102;-83
2023/01/25 05:15:48;;;;;;;132.52;58.92;;;;;;;-0.53;95.54;103611.22;4955829;29;20066;-85
2023/01/25 05:18:13;;;;;;;138.00;60.30;;;;;;;-0.53;95.32;103605.28;4955940;29;20039;-85
2023/01/25 05:20:38;;;;;;;138.30;60.30;;;;;;;-0.53;95.94;103611.22;4955608;29;20034;-84
2023/01/25 05:23:04;;;;;;;136.15;59.38;;;;;;;-0.52;96.01;103602.78;4955645;28;20110;-85
2023/01/25 05:28:13;;;;;;;133.98;58.67;;;;;;;-0.62;94.94;103594.06;4936820;29;20511;-83
2023/01/25 05:30:38;;;;;;;136.13;59.85;;;;;;;-0.61;94.90;103587.28;4936371;29;20063;-83
2023/01/25 05:33:04;;;;;;;128.05;57.58;;;;;;;-0.53;95.03;103592.59;4936462;29;20059;-84
2023/01/25 05:35:29;;;;;;;141.77;60.35;;;;;;;-0.52;94.92;103595.16;4936158;29;20494;-83
2023/01/25 05:37:56;;;;;;;135.98;60.80;;;;;;;-0.72;95.34;103558.22;4936572;29;20035;-83
2023/01/25 05:40:22;;;;;;;137.30;60.67;;;;;;;-0.78;95.71;103558.94;4936255;29;20028;-87
2023/01/25 05:42:54;;;;;;;142.73;60.83;;;;;;;-0.52;95.86;103587.53;4935587;29;20034;-84
2023/01/25 05:45:20;;;;;;;139.65;61.63;;;;;;;-0.53;96.38;103590.06;4935018;29;20481;-82
2023/01/25 05:47:45;;;;;;;140.23;62.03;;;;;;;-0.85;96.16;103541.81;4934696;29;20130;-82
2023/01/25 05:50:10;;;;;;;138.77;60.70;;;;;;;-0.72;96.43;103555.69;4935922;29;20106;-86
2023/01/25 05:52:36;;;;;;;137.38;60.75;;;;;;;-0.62;96.08;103573.75;4935142;29;20036;-82
2023/01/25 05:55:01;;;;;;;142.13;60.58;;;;;;;-0.52;96.25;103587.53;4936059;29;20039;-83
2023/01/25 05:57:27;;;;;;;143.27;62.08;;;;;;;-0.77;96.09;103547.13;4935882;29;20106;-83
2023/01/25 05:59:53;;;;;;;140.05;63.05;;;;;;;-0.64;96.34;103560.16;4936250;29;20115;-85
2023/01/25 06:02:18;;;;;;;142.88;61.15;;;;;;;-0.51;96.30;103583.34;4936325;29;20451;-83
2023/01/25 06:04:43;;;;;;;136.57;60.92;;;;;;;-0.50;96.08;103585.91;4934498;29;20091;-85
2023/01/25 06:07:09;;;;;;;144.30;64.32;;;;;;;-0.52;95.64;103587.53;4935966;29;20031;-82
2023/01/25 06:09:34;;;;;;;140.40;62.17;;;;;;;-0.99;95.45;103508.44;4936089;29;20491;-82
2023/01/25 06:11:59;;;;;;;140.20;60.13;;;;;;;-0.73;95.77;103553.97;4935813;29;20476;-82
2023/01/25 06:14:25;;;;;;;142.30;61.50;;;;;;;-0.54;95.89;103598.47;4934598;29;20101;-83
2023/01/25 06:16:50;;;;;;;135.88;60.45;;;;;;;-0.54;96.43;103596.81;4935690;29;20534;-82
2023/01/25 06:19:15;;;;;;;138.73;61.20;;;;;;;-0.91;96.68;103534.88;4935870;29;20054;-81
2023/01/25 06:21:40;;;;;;;140.93;60.97;;;;;;;-0.56;96.39;103588.28;4935482;29;20543;-82
2023/01/25 06:24:06;;;;;;;145.82;62.63;;;;;;;-1.28;96.06;103477.22;4935476;29;20028;-83
2023/01/25 06:26:31;;;;;;;137.88;59.90;;;;;;;-0.56;96.80;103584.91;4935402;29;20110;-83
2023/01/25 06:28:57;;;;;;;142.15;62.92;;;;;;;-1.19;96.67;103474.91;4935263;29;20060;-83
2023/01/25 06:31:22;;;;;;;142.57;61.45;;;;;;;-0.84;97.62;103537.59;4935513;29;20028;-82
2023/01/25 06:33:49;;;;;;;143.35;62.63;;;;;;;-0.55;97.49;103591.69;4935831;29;20384;-84
2023/01/25 06:36:17;;;;;;;147.75;63.88;;;;;;;-0.78;97.44;103555.53;4935662;29;20028;-82
2023/01/25 06:38:46;;;;;;;148.95;63.33;;;;;;;-0.94;97.13;103527.19;4935580;29;20027;-82
2023/01/25 06:41:11;;;;;;;142.15;60.95;;;;;;;-0.61;97.61;103587.28;4935491;29;20495;-82
2023/01/25 06:43:37;;;;;;;149.32;61.28;;;;;;;-0.66;97.72;103579.56;4935506;29;20032;-83
2023/01/25 06:46:05;;;;;;;143.63;63.17;;;;;;;-0.57;97.51;103589.13;4935391;29;20059;-84
2023/01/25 06:48:31;;;;;;;146.55;62.08;;;;;;;-0.59;97.29;103589.09;4935563;29;20036;-84
2023/01/25 06:51:05;;;;;;;144.55;60.75;;;;;;;-0.60;97.19;103579.72;4935407;29;20069;-89
2023/01/25 06:53:32;;;;;;;138.20;59.50;;;;;;;-0.89;97.17;103529.84;4936679;29;20028;-89
2023/01/25 06:56:06;;;;;;;138.75;58.63;;;;;;;-0.60;96.09;103583.94;4939519;29;20030;-86
2023/01/25 06:58:32;;;;;;;140.82;59.13;;;;;;;-0.65;96.30;103586.38;4941426;29;20055;-89
2023/01/25 07:01:06;;;;;;;139.48;59.60;;;;;;;-0.75;96.52;103561.56;4941672;29;20039;-88
2023/01/25 07:03:32;;;;;;;141.27;61.95;;;;;;;-0.96;96.93;103527.97;4942867;29;20024;-85
2023/01/25 07:06:03;;;;;;;139.95;60.92;;;;;;;-0.64;97.38;103577.94;4941624;29;20028;-89
2023/01/25 07:08:29;;;;;;;142.35;61.30;;;;;;;-0.63;97.37;103573.72;4940291;29;20024;-85
2023/01/25 07:11:00;;;;;;;144.82;62.05;;;;;;;-0.90;97.69;103530.66;4942236;29;20026;-85
2023/01/25 07:13:27;;;;;;;139.85;60.03;;;;;;;-0.60;97.63;103584.78;4941549;29;20395;-86
2023/01/25 07:16:01;;;;;;;140.40;60.10;;;;;;;-0.89;97.60;103538.31;4940984;29;20377;-83
2023/01/25 07:18:29;;;;;;;140.50;60.72;;;;;;;-0.61;97.12;103587.28;4939689;29;20027;-86
2023/01/25 07:21:01;;;;;;;144.13;61.67;;;;;;;-0.58;97.42;103589.94;4939394;29;20031;-85
2023/01/25 07:23:31;;;;;;;137.15;60.08;;;;;;;-0.59;96.77;103586.53;4939194;29;20027;-87
2023/01/25 07:25:57;;;;;;;135.25;60.40;;;;;;;-0.60;96.78;103572.09;4938348;29;20532;-84
2023/01/25 07:28:22;;;;;;;139.82;59.70;;;;;;;-0.80;96.50;103539.41;4938959;29;20039;-84
2023/01/25 07:30:48;;;;;;;145.60;61.42;;;;;;;-0.57;96.62;103571.34;4940267;29;20023;-82
2023/01/25 07:33:14;;;;;;;134.85;57.35;;;;;;;-0.84;96.59;103532.53;4940418;29;20032;-81
2023/01/25 07:35:39;;;;;;;137.68;59.38;;;;;;;-0.63;96.71;103568.63;4942216;29;20349;-81
2023/01/25 07:38:05;;;;;;;135.40;57.28;;;;;;;-1.57;96.88;103407.13;4939869;29;20452;-81
2023/01/25 07:40:30;;;;;;;141.48;59.22;;;;;;;-0.67;95.81;103566.84;4939654;29;20480;-84
2023/01/25 07:42:56;;;;;;;137.80;59.40;;;;;;;-0.71;95.85;103567.56;4940556;29;20473;-81
2023/01/25 07:45:27;;;;;;;135.88;57.83;;;;;;;-0.74;96.21;103562.41;4942734;29;20020;-85
2023/01/25 07:47:53;;;;;;;130.93;56.20;;;;;;;-0.72;96.20;103555.69;4941470;29;20023;-82
2023/01/25 07:50:18;;;;;;;138.07;59.70;;;;;;;-1.01;96.60;103510.09;4939804;29;20020;-85
2023/01/25 07:52:44;;;;;;;137.23;57.25;;;;;;;-1.01;97.03;103506.69;4939890;29;20032;-87
2023/01/25 07:55:10;;;;;;;136.25;57.28;;;;;;;-0.84;96.68;103532.53;4937787;29;20392;-83
2023/01/25 07:57:35;;;;;;;139.18;58.38;;;;;;;-0.80;96.72;103534.31;4942614;29;20023;-84
2023/01/25 08:00:00;;;;;;;131.63;57.33;;;;;;;-0.63;96.76;103568.63;4943013;29;20064;-86
2023/01/25 08:02:26;;;;;;;131.88;59.47;;;;;;;-0.61;96.11;103561.91;4942709;29;20051;-84
2023/01/25 08:04:51;;;;;;;131.23;57.65;;;;;;;-0.70;96.23;103548.97;4941039;29;20055;-81
2023/01/25 08:07:16;;;;;;;140.57;61.03;;;;;;;-0.93;96.05;103490.00;4961954;28;20086;-84
2023/01/25 08:09:42;;;;;;;136.13;59.80;;;;;;;-0.78;96.85;103520.03;4959995;28;20027;-80
2023/01/25 08:12:07;;;;;;;140.43;59.08;;;;;;;-1.34;95.80;103417.88;4964395;29;20026;-85
2023/01/25 08:14:33;;;;;;;138.07;59.72;;;;;;;-0.88;96.30;103496.94;4957648;28;20082;-86
2023/01/25 08:16:58;;;;;;;137.95;59.17;;;;;;;-0.53;96.12;103557.06;4958741;28;20098;-86
2023/01/25 08:19:24;;;;;;;138.00;58.78;;;;;;;-0.68;95.70;103525.38;4962972;28;20027;-84
2023/01/25 08:21:50;;;;;;;139.77;61.17;;;;;;;-0.47;95.49;103549.63;4956430;29;20062;-85
2023/01/25 08:24:15;;;;;;;136.75;57.55;;;;;;;-0.77;94.71;103499.75;4957351;28;20075;-83
2023/01/25 08:26:42;;;;;;;140.55;59.10;;;;;;;-0.72;95.15;103504.94;4955328;29;20507;-84
2023/01/25 08:29:09;;;;;;;146.35;61.22;;;;;;;-0.63;95.27;103513.66;4959175;28;20027;-87
2023/01/25 08:31:36;;;;;;;132.18;59.75;;;;;;;-0.47;95.16;103547.94;4956944;28;20035;-85
2023/01/25 08:34:02;;;;;;;146.88;60.58;;;;;;;-0.56;95.29;103524.84;4957249;28;20075;-81
2023/01/25 08:36:28;;;;;;;135.27;57.55;;;;;;;-0.49;95.55;103534.34;4957266;28;20035;-85
2023/01/25 08:38:55;;;;;;;133.60;57.22;;;;;;;-0.77;95.92;103499.75;4957218;28;20080;-83
2023/01/25 08:41:21;;;;;;;138.10;61.33;;;;;;;-0.72;95.93;103497.34;4956841;28;20034;-84
2023/01/25 08:43:47;;;;;;;140.00;59.28;;;;;;;-0.44;95.71;103542.94;4956729;28;20039;-85
2023/01/25 08:46:14;;;;;;;136.77;58.67;;;;;;;-0.55;95.76;103525.69;4956206;29;20061;-84
2023/01/25 08:48:39;;;;;;;142.43;58.47;;;;;;;-0.53;95.09;103521.53;4956458;28;20031;-86
2023/01/25 08:51:07;;;;;;;136.75;59.10;;;;;;;-0.42;95.18;103543.81;4956224;29;20030;-88
2023/01/25 08:53:33;;;;;;;140.55;57.30;;;;;;;-0.42;95.06;103540.41;4956506;28;20027;-86
2023/01/25 08:56:09;;;;;;;136.50;58.35;;;;;;;-0.43;95.10;103541.25;4956414;29;20494;-87
2023/01/25 08:58:40;;;;;;;138.90;60.13;;;;;;;-0.78;94.87;103481.97;4956544;28;20090;-87
2023/01/25 09:01:08;;;;;;;141.25;58.97;;;;;;;-0.61;95.34;103501.88;4956160;28;20077;-86
2023/01/25 09:03:35;;;;;;;137.38;59.25;;;;;;;-0.38;95.22;103527.00;4956062;28;20023;-87
2023/01/25 09:06:01;;;;;;;138.55;58.55;;;;;;;-0.34;95.57;103524.56;4957773;28;20031;-88
2023/01/25 09:08:26;;;;;;;141.55;59.58;;;;;;;-0.42;95.11;103504.88;4958601;29;20106;-88
2023/01/25 09:10:51;;;;;;;146.25;60.95;;;;;;;-0.35;95.20;103505.09;4957133;29;20028;-84
2023/01/25 09:13:17;;;;;;;139.85;59.15;;;;;;;-0.44;94.76;103496.38;4955897;29;20027;-87
2023/01/25 09:15:43;;;;;;;136.40;58.22;;;;;;;-0.75;94.97;103444.00;4955923;29;20079;-85
2023/01/25 09:18:08;;;;;;;142.63;58.92;;;;;;;-0.43;94.88;103505.72;4955156;28;20363;-89
2023/01/25 09:20:34;;;;;;;131.88;57.85;;;;;;;-0.41;95.17;103504.91;4961268;28;20023;-85
2023/01/25 09:23:01;;;;;;;140.90;58.45;;;;;;;-0.79;96.13;103430.34;4958936;28;20027;-87
2023/01/25 09:25:26;;;;;;;135.85;58.17;;;;;;;-0.30;94.98;103520.41;4958628;28;20055;-89
2023/01/25 09:27:54;;;;;;;140.50;60.33;;;;;;;-0.65;95.10;103462.03;4960349;29;20037;-90
2023/01/25 09:30:19;;;;;;;133.02;56.60;;;;;;;-1.15;94.50;103374.47;4957328;29;20392;-86
2023/01/25 09:32:48;;;;;;;135.45;59.70;;;;;;;-0.28;94.60;103516.25;4957655;28;20023;-88
2023/01/25 09:35:16;;;;;;;136.50;56.28;;;;;;;-0.61;94.63;103468.03;4958297;28;20039;-88
2023/01/25 09:37:42;;;;;;;142.95;59.38;;;;;;;-0.25;94.49;103526.50;4956332;28;20039;-86
2023/01/25 09:40:22;;;;;;;137.77;57.65;;;;;;;-0.23;95.04;103514.69;4955677;28;20475;-87
2023/01/25 09:43:02;;;;;;;133.52;56.88;;;;;;;-0.54;95.05;103464.81;4961308;28;20024;-90
2023/01/25 09:45:35;;;;;;;128.05;55.47;;;;;;;-0.25;94.98;103513.78;4955159;29;20599;-89
2023/01/25 09:48:21;;;;;;;133.00;57.50;;;;;;;-0.68;95.09;103439.13;4957253;28;20082;-89
2023/01/25 09:50:58;;;;;;;131.25;55.47;;;;;;;-0.30;94.41;103510.25;4958099;29;20372;-92
2023/01/25 09:53:32;;;;;;;136.57;57.60;;;;;;;-0.70;94.94;103439.88;4958464;28;20118;-88
2023/01/25 09:56:03;;;;;;;134.02;56.85;;;;;;;-0.28;95.20;103513.72;4955275;28;20055;-81
2023/01/25 09:58:33;;;;;;;134.57;55.92;;;;;;;-0.33;94.53;103497.50;4955916;28;20095;-90
2023/01/25 10:01:16;;;;;;;124.38;54.97;;;;;;;-0.37;94.06;103503.34;4954166;29;20031;-87
2023/01/25 10:03:49;;;;;;;132.38;56.17;;;;;;;-0.52;93.93;103470.78;4956832;28;20050;-86
2023/01/25 10:06:17;;;;;;;132.75;55.53;;;;;;;-0.69;93.89;103441.59;4955267;28;20043;-89
2023/01/25 10:09:10;;;;;;;134.63;57.33;;;;;;;-0.20;94.05;103508.81;4956850;28;20031;-87
2023/01/25 10:11:37;;;;;;;131.02;56.28;;;;;;;-0.19;94.05;103511.41;4955427;28;20027;-85
2023/01/25 10:14:14;;;;;;;127.00;55.88;;;;;;;-0.34;93.19;103475.47;4955396;28;20035;-89
2023/01/25 10:16:45;;;;;;;131.75;57.28;;;;;;;-0.15;93.64;103500.50;4954945;29;20031;-82
2023/01/25 10:19:36;;;;;;;130.07;54.83;;;;;;;-0.13;93.60;103496.31;4954790;29;20031;-82
2023/01/25 10:22:15;;;;;;;131.05;56.65;;;;;;;-0.31;93.72;103471.31;4915159;29;20040;-83
2023/01/25 10:24:52;;;;;;;137.63;56.33;;;;;;;-0.15;94.40;103497.97;4898450;29;20055;-85
2023/01/25 10:27:45;;;;;;;134.95;55.83;;;;;;;-0.13;94.58;103500.53;4914508;29;20520;-82
2023/01/25 10:30:25;;;;;;;137.45;59.10;;;;;;;-0.19;93.72;103486.03;4914218;29;20035;-82
2023/01/25 10:32:52;;;;;;;134.07;57.10;;;;;;;-0.45;93.58;103449.84;4914290;29;20070;-85
2023/01/25 10:35:22;;;;;;;132.45;54.60;;;;;;;-0.19;93.78;103477.56;4914299;29;20044;-83
2023/01/25 10:37:48;;;;;;;128.20;56.03;;;;;;;-0.21;93.75;103476.63;4914319;29;20028;-85
2023/01/25 10:40:22;;;;;;;136.70;57.55;;;;;;;-0.21;94.27;103459.72;4914332;29;20040;-82
2023/01/25 10:42:59;;;;;;;136.90;58.53;;;;;;;-0.12;93.88;103456.53;4914388;29;20228;-83
2023/01/25 10:45:24;;;;;;;132.18;56.25;;;;;;;-0.24;93.50;103430.84;4914096;29;20040;-84
2023/01/25 10:47:56;;;;;;;128.65;55.42;;;;;;;-0.07;93.36;103450.75;4914152;29;20039;-82
2023/01/25 10:50:45;;;;;;;125.88;54.72;;;;;;;-0.01;93.58;103440.72;4914379;29;20492;-80
2023/01/25 10:53:29;;;;;;;128.70;56.80;;;;;;;0.04;93.52;103438.28;4914320;29;20036;-82
2023/01/25 10:55:59;;;;;;;122.72;52.78;;;;;;;0.07;93.16;103434.94;4914312;29;20088;-83
2023/01/25 10:58:30;;;;;;;130.68;56.85;;;;;;;0.01;92.22;103414.50;4925164;29;20118;-79
2023/01/25 11:00:56;;;;;;;128.98;53.50;;;;;;;-0.07;93.10;103409.25;4954343;28;20042;-78
2023/01/25 11:03:21;;;;;;;130.05;56.33;;;;;;;-0.02;93.37;103416.13;4954253;28;20388;-80
2023/01/25 11:05:55;;;;;;;132.75;54.50;;;;;;;-0.05;93.71;103413.53;4954328;29;20154;-81
2023/01/25 11:08:31;;;;;;;123.93;53.92;;;;;;;-0.07;93.33;103406.72;4954385;28;20027;-80
2023/01/25 11:10:58;;;;;;;126.57;55.60;;;;;;;-0.22;92.22;103386.03;4952600;29;20031;-80